createdAt,value
2023-03-17T00:02:42.947Z,5.89
2023-03-17T00:07:47.537Z,3.60
2023-03-17T00:12:53.503Z,1.68
2023-03-17T00:17:57.422Z,4.85
2023-03-17T00:23:04.699Z,5.35
2023-03-17T00:28:21.183Z,2.51
2023-03-17T00:33:28.160Z,0.84
2023-03-17T00:38:31.573Z,2.39
2023-03-17T00:43:34.578Z,5.66
2023-03-17T00:48:38.511Z,3.77
2023-03-17T00:53:41.625Z,1.77
2023-03-17T00:58:45.718Z,4.35
2023-03-17T01:03:48.751Z,5.35
2023-03-17T01:08:52.473Z,2.64
2023-03-17T01:13:55.796Z,2.69
2023-03-17T01:18:58.849Z,5.75
2023-03-17T01:24:02.931Z,3.90
2023-03-17T01:29:08.032Z,1.92
2023-03-17T01:34:11.709Z,3.86
2023-03-17T01:39:15.436Z,6.05
2023-03-17T01:44:19.776Z,3.39
2023-03-17T01:49:33.240Z,4.06
2023-03-17T01:54:42.890Z,5.91
2023-03-17T01:59:50.982Z,3.51
2023-03-17T02:04:54.331Z,5.97
2023-03-17T02:09:58.932Z,5.83
2023-03-17T02:15:03.386Z,3.63
2023-03-17T02:20:13.759Z,6.24
2023-03-17T02:25:17.680Z,4.75
2023-03-17T02:30:23.399Z,4.87
2023-03-17T02:35:27.188Z,6.13
2023-03-17T02:40:30.440Z,3.40
2023-03-17T02:45:33.652Z,4.60
2023-03-17T02:50:37.629Z,6.12
2023-03-17T02:55:41.498Z,4.16
2023-03-17T03:00:44.708Z,3.19
2023-03-17T03:05:48.038Z,5.25
2023-03-17T03:10:51.065Z,5.38
2023-03-17T03:15:54.056Z,2.92
2023-03-17T03:20:57.040Z,4.17
2023-03-17T03:26:00.148Z,5.71
2023-03-17T03:31:03.531Z,5.16
2023-03-17T03:36:07.931Z,2.62
2023-03-17T03:41:11.382Z,2.30
2023-03-17T03:46:15.822Z,4.80
2023-03-17T03:51:18.968Z,5.30
2023-03-17T03:56:21.865Z,3.07
2023-03-17T04:01:24.968Z,3.87
2023-03-17T04:06:27.887Z,5.56
2023-03-17T04:11:31.189Z,5.01
2023-03-17T04:16:34.267Z,3.24
2023-03-17T04:21:37.511Z,4.78
2023-03-17T04:26:41.481Z,5.61
2023-03-17T04:31:44.416Z,5.41
2023-03-17T04:36:48.685Z,3.18
2023-03-17T04:41:51.585Z,4.20
2023-03-17T04:46:54.503Z,5.51
2023-03-17T04:51:57.492Z,4.95
2023-03-17T04:57:00.375Z,3.10
2023-03-17T05:02:03.423Z,4.41
2023-03-17T05:07:06.720Z,5.99
2023-03-17T05:12:11.025Z,6.78
2023-03-17T05:17:14.419Z,4.71
2023-03-17T05:22:17.381Z,3.96
2023-03-17T05:27:21.721Z,6.53
2023-03-17T05:32:24.924Z,6.67
2023-03-17T05:37:28.032Z,4.31
2023-03-17T05:42:31.107Z,4.11
2023-03-17T05:47:34.257Z,6.90
2023-03-17T05:52:38.271Z,6.68
2023-03-17T05:57:41.407Z,4.43
2023-03-17T06:02:44.931Z,4.13
2023-03-17T06:07:54.950Z,6.47
2023-03-17T06:13:00.706Z,7.67
2023-03-17T06:18:05.813Z,5.28
2023-03-17T06:23:09.124Z,6.01
2023-03-17T06:28:12.010Z,8.55
2023-03-17T06:33:16.025Z,6.27
2023-03-17T06:38:18.965Z,5.28
2023-03-17T06:43:24.958Z,8.21
2023-03-17T06:48:28.862Z,7.30
2023-03-17T06:53:32.352Z,6.64
2023-03-17T06:58:35.385Z,9.51
2023-03-17T07:03:38.909Z,7.67
2023-03-17T07:08:42.220Z,6.57
2023-03-17T07:13:45.437Z,9.16
2023-03-17T07:18:48.671Z,9.00
2023-03-17T07:23:51.861Z,6.99
2023-03-17T07:28:54.960Z,8.83
2023-03-17T07:33:58.070Z,8.96
2023-03-17T07:39:04.150Z,8.87
2023-03-17T07:44:07.267Z,12.51
2023-03-17T07:49:10.984Z,11.49
2023-03-17T07:54:16.013Z,9.38
2023-03-17T07:59:19.657Z,8.75
2023-03-17T08:04:22.874Z,9.41
2023-03-17T08:09:25.975Z,7.90
2023-03-17T08:14:29.905Z,8.98
2023-03-17T08:19:32.947Z,9.09
2023-03-17T08:24:37.359Z,8.99
2023-03-17T08:29:40.459Z,9.71
2023-03-17T08:34:44.691Z,10.64
2023-03-17T08:39:47.802Z,11.46
2023-03-17T08:44:50.910Z,11.08
2023-03-17T08:49:53.916Z,10.07
2023-03-17T08:54:57.028Z,9.10
2023-03-17T09:00:00.201Z,8.55
2023-03-17T09:05:04.149Z,8.31
2023-03-17T09:10:09.731Z,8.23
2023-03-17T09:15:12.845Z,8.32
2023-03-17T09:20:16.427Z,8.40
2023-03-17T09:25:19.365Z,8.34
2023-03-17T09:30:22.477Z,8.34
2023-03-17T09:35:28.142Z,8.27
2023-03-17T09:40:36.356Z,8.40
2023-03-17T09:45:43.656Z,8.43
2023-03-17T09:51:05.156Z,8.37
2023-03-17T09:56:13.940Z,8.31
2023-03-17T10:01:17.149Z,8.18
2023-03-17T10:06:43.726Z,8.15
2023-03-17T10:12:11.062Z,8.19
2023-03-17T10:17:19.282Z,8.23
2023-03-17T10:22:41.296Z,8.21
2023-03-17T10:27:53.024Z,8.22
2023-03-17T10:32:59.259Z,8.21
2023-03-17T10:38:16.415Z,8.19
2023-03-17T10:43:21.785Z,8.29
2023-03-17T10:48:25.298Z,8.47
2023-03-17T10:53:37.944Z,8.71
2023-03-17T10:58:49.079Z,9.06
2023-03-17T11:03:52.160Z,9.26
2023-03-17T11:08:55.979Z,9.53
2023-03-17T11:14:10.734Z,9.60
2023-03-17T11:19:17.277Z,9.66
2023-03-17T11:24:31.460Z,9.70
2023-03-17T11:29:37.894Z,9.72
2023-03-17T11:35:03.753Z,9.77
2023-03-17T11:40:22.037Z,9.81
2023-03-17T11:45:34.121Z,9.51
2023-03-17T11:51:04.160Z,9.25
2023-03-17T11:56:16.788Z,9.03
2023-03-17T12:01:27.339Z,8.95
2023-03-17T12:06:35.105Z,9.03
2023-03-17T12:11:43.530Z,9.12
2023-03-17T12:17:15.323Z,9.07
2023-03-17T12:22:21.692Z,9.02
2023-03-17T12:27:44.665Z,8.89
2023-03-17T12:32:59.478Z,8.87
2023-03-17T12:38:11.669Z,8.89
2023-03-17T12:43:48.776Z,9.03
2023-03-17T12:49:35.597Z,9.08
2023-03-17T12:54:44.852Z,9.17
2023-03-17T12:59:59.849Z,9.28
2023-03-17T13:05:07.907Z,9.33
2023-03-17T13:10:40.198Z,9.38
2023-03-17T13:15:43.201Z,9.35
2023-03-17T13:20:52.119Z,9.39
2023-03-17T13:25:55.323Z,9.30
2023-03-17T13:31:30.014Z,9.30
2023-03-17T13:36:48.236Z,9.31
2023-03-17T13:42:20.659Z,9.27
2023-03-17T13:47:23.844Z,9.33
2023-03-17T13:52:33.100Z,9.43
2023-03-17T13:57:39.984Z,9.42
2023-03-17T14:02:44.688Z,9.28
2023-03-17T14:07:56.863Z,9.09
2023-03-17T14:13:21.786Z,8.96
2023-03-17T14:18:36.580Z,8.89
2023-03-17T14:23:39.574Z,8.84
2023-03-17T14:28:42.579Z,8.84
2023-03-17T14:33:45.789Z,8.89
2023-03-17T14:38:51.776Z,8.90
2023-03-17T14:43:59.716Z,8.87
2023-03-17T14:49:21.642Z,8.78
2023-03-17T14:54:32.252Z,8.61
2023-03-17T14:59:43.012Z,8.48
2023-03-17T15:04:56.588Z,8.33
2023-03-17T15:10:02.330Z,8.17
2023-03-17T15:15:27.875Z,8.03
2023-03-17T15:20:35.499Z,7.88
2023-03-17T15:25:42.796Z,7.77
2023-03-17T15:30:49.044Z,7.68
2023-03-17T15:35:52.623Z,7.61
2023-03-17T15:40:56.323Z,7.51
2023-03-17T15:46:14.457Z,7.37
2023-03-17T15:51:17.912Z,7.22
2023-03-17T15:56:22.220Z,7.09
2023-03-17T16:01:27.775Z,6.98
2023-03-17T16:06:31.423Z,6.85
2023-03-17T16:11:34.628Z,6.73
2023-03-17T16:16:39.776Z,6.61
2023-03-17T16:21:43.513Z,6.55
2023-03-17T16:26:46.523Z,6.46
2023-03-17T16:31:51.300Z,6.36
2023-03-17T16:36:55.105Z,6.26
2023-03-17T16:41:59.763Z,6.13
2023-03-17T16:47:02.784Z,5.98
2023-03-17T16:52:06.063Z,5.86
2023-03-17T16:57:12.748Z,5.77
2023-03-17T17:02:16.372Z,5.70
2023-03-17T17:07:19.590Z,5.60
2023-03-17T17:12:22.592Z,5.47
2023-03-17T17:17:25.808Z,5.36
2023-03-17T17:22:29.530Z,5.29
2023-03-17T17:27:32.644Z,5.21
2023-03-17T17:32:36.178Z,5.18
2023-03-17T17:37:39.842Z,5.18
2023-03-17T17:42:44.301Z,5.19
2023-03-17T17:47:48.054Z,5.22
2023-03-17T17:52:51.046Z,5.21
2023-03-17T17:57:54.047Z,5.21
2023-03-17T18:02:57.364Z,5.18
2023-03-17T18:08:02.545Z,5.15
2023-03-17T18:13:05.627Z,5.15
2023-03-17T18:18:08.941Z,5.15
2023-03-17T18:23:12.364Z,5.14
2023-03-17T18:28:16.082Z,5.09
2023-03-17T18:33:20.106Z,5.04
2023-03-17T18:38:23.116Z,4.98
2023-03-17T18:43:26.440Z,4.95
2023-03-17T18:48:29.443Z,4.93
2023-03-17T18:53:34.734Z,4.90
2023-03-17T18:58:37.917Z,4.90
2023-03-17T19:03:41.550Z,4.88
2023-03-17T19:08:44.854Z,4.87
2023-03-17T19:13:48.359Z,4.80
2023-03-17T19:18:52.493Z,4.75
2023-03-17T19:24:00.084Z,4.73
2023-03-17T19:29:03.639Z,4.73
2023-03-17T19:34:08.163Z,4.71
2023-03-17T19:39:11.484Z,4.69
2023-03-17T19:44:14.806Z,4.64
2023-03-17T19:49:20.160Z,4.59
2023-03-17T19:54:23.519Z,4.55
2023-03-17T19:59:26.683Z,4.49
2023-03-17T20:04:30.311Z,4.44
2023-03-17T20:09:33.525Z,4.40
2023-03-17T20:14:36.932Z,4.35
2023-03-17T20:19:40.243Z,4.32
2023-03-17T20:24:43.665Z,4.30
2023-03-17T20:29:48.638Z,4.30
2023-03-17T20:34:51.725Z,4.29
2023-03-17T20:39:57.499Z,4.30
2023-03-17T20:45:00.802Z,4.29
2023-03-17T20:50:04.726Z,4.29
2023-03-17T20:55:13.967Z,4.28
2023-03-17T21:00:21.290Z,4.27
2023-03-17T21:05:27.638Z,4.25
2023-03-17T21:10:31.009Z,4.22
2023-03-17T21:15:34.728Z,4.24
2023-03-17T21:20:37.830Z,4.30
2023-03-17T21:25:41.295Z,4.31
2023-03-17T21:30:44.769Z,4.33
2023-03-17T21:35:48.330Z,4.36
2023-03-17T21:40:51.795Z,4.44
2023-03-17T21:45:55.172Z,4.51
2023-03-17T21:50:58.738Z,4.56
2023-03-17T21:56:02.361Z,4.59
2023-03-17T22:01:06.473Z,4.57
2023-03-17T22:06:11.512Z,4.56
2023-03-17T22:11:18.039Z,4.55
2023-03-17T22:16:21.791Z,4.52
2023-03-17T22:21:25.382Z,4.51
2023-03-17T22:26:28.789Z,4.46
2023-03-17T22:31:32.041Z,4.38
2023-03-17T22:36:35.320Z,4.37
2023-03-17T22:41:39.043Z,4.37
2023-03-17T22:46:42.052Z,4.32
2023-03-17T22:51:46.789Z,4.28
2023-03-17T22:56:49.896Z,4.27
2023-03-17T23:01:53.012Z,4.23
2023-03-17T23:06:56.536Z,4.19
2023-03-17T23:12:00.759Z,4.14
2023-03-17T23:17:06.163Z,4.15
2023-03-17T23:22:09.242Z,4.19
2023-03-17T23:27:12.352Z,4.19
2023-03-17T23:32:15.661Z,4.16
2023-03-17T23:37:18.767Z,4.14
2023-03-17T23:42:22.489Z,4.09
2023-03-17T23:47:26.581Z,4.02
2023-03-17T23:52:30.967Z,3.96
2023-03-17T23:57:35.091Z,3.87
